Time;durP1;ratioP1;P1;durP2;ratioP2;P2;SDS_P1;SDS_P2;PMS_P1;PMS_P2;Temp;Humidity;BMP_temperature;BMP_pressure;BME280_temperature;BME280_humidity;BME280_pressure;Samples;Min_cycle;Max_cycle;Signal;HPM_P1;HPM_P2
2022/06/22 00:00:29;;;;;;;3.75;1.30;;;;;;;22.62;41.10;101249.59;5075620;28;20028;-73
2022/06/22 00:03:03;;;;;;;3.53;1.13;;;;;;;22.60;41.30;101246.22;5075657;28;20029;-72
2022/06/22 00:05:33;;;;;;;2.90;1.25;;;;;;;22.61;41.17;101242.59;5074471;28;20108;-73
2022/06/22 00:08:02;;;;;;;3.10;1.10;;;;;;;22.61;41.16;101244.44;5075508;28;20028;-73
2022/06/22 00:10:27;;;;;;;3.08;1.30;;;;;;;22.59;41.37;101241.91;5074787;28;20052;-72
2022/06/22 00:12:55;;;;;;;2.90;1.20;;;;;;;22.59;41.20;101241.09;5075613;28;20064;-72
2022/06/22 00:15:38;;;;;;;2.97;1.10;;;;;;;22.59;41.23;101233.13;5075183;28;20031;-73
2022/06/22 00:18:21;;;;;;;3.63;1.23;;;;;;;22.58;41.51;101232.25;5074361;28;20032;-72
2022/06/22 00:20:51;;;;;;;3.20;1.17;;;;;;;22.57;41.28;101230.59;5075169;28;20103;-72
2022/06/22 00:23:39;;;;;;;4.68;1.50;;;;;;;22.57;41.44;101233.25;5075024;28;20108;-72
2022/06/22 00:26:18;;;;;;;3.13;1.25;;;;;;;22.56;41.55;101228.09;5074198;28;20456;-72
2022/06/22 00:29:05;;;;;;;3.22;1.30;;;;;;;22.55;41.51;101231.72;5074689;28;20091;-72
2022/06/22 00:31:30;;;;;;;3.97;1.20;;;;;;;22.56;41.58;101233.41;5074160;28;20032;-72
2022/06/22 00:34:30;;;;;;;3.83;1.53;;;;;;;22.55;41.55;101223.75;5073671;28;20056;-72
2022/06/22 00:37:05;;;;;;;3.03;1.30;;;;;;;22.55;41.43;101223.75;5031499;28;20547;-72
2022/06/22 00:39:35;;;;;;;3.70;1.10;;;;;;;22.54;41.47;101214.09;5073994;28;20063;-72
2022/06/22 00:42:15;;;;;;;3.15;1.45;;;;;;;22.55;41.72;101218.44;5074805;28;20024;-73
2022/06/22 00:45:06;;;;;;;3.58;1.20;;;;;;;22.53;41.51;101231.88;5074579;28;20024;-72
2022/06/22 00:47:35;;;;;;;5.38;1.73;;;;;;;22.53;41.73;101239.84;5073872;28;20044;-72
2022/06/22 00:50:23;;;;;;;3.47;1.40;;;;;;;22.53;41.67;101236.34;5074472;28;20027;-72
2022/06/22 00:53:11;;;;;;;6.15;1.50;;;;;;;22.52;41.78;101230.19;5073554;28;20115;-72
2022/06/22 00:55:48;;;;;;;3.25;1.25;;;;;;;22.51;41.81;101217.91;5074350;28;20036;-72
2022/06/22 00:58:20;;;;;;;3.97;1.30;;;;;;;22.51;41.52;101219.69;5074304;28;20021;-72
2022/06/22 01:00:58;;;;;;;3.45;1.13;;;;;;;22.51;41.57;101214.38;5073498;28;20047;-72
2022/06/22 01:03:33;;;;;;;3.42;1.42;;;;;;;22.51;41.58;101201.13;5074280;28;20033;-72
2022/06/22 01:06:09;;;;;;;5.25;1.30;;;;;;;22.49;41.80;101206.56;5074176;28;20027;-73
2022/06/22 01:09:00;;;;;;;3.17;1.20;;;;;;;22.49;41.78;101216.38;5073429;28;20108;-73
2022/06/22 01:14:31;;;;;;;3.22;1.42;;;;;;;22.48;41.72;101233.28;5073194;28;20035;-72
2022/06/22 01:16:59;;;;;;;4.57;1.50;;;;;;;22.47;41.94;101232.44;5073995;28;20028;-72
2022/06/22 01:19:39;;;;;;;3.25;1.40;;;;;;;22.47;41.70;101240.41;5073985;28;20027;-73
2022/06/22 01:22:32;;;;;;;3.45;1.50;;;;;;;22.46;41.64;101241.38;5072991;28;20031;-72
2022/06/22 01:25:27;;;;;;;3.85;1.35;;;;;;;22.46;41.94;101238.72;5073890;28;20035;-72
2022/06/22 01:27:52;;;;;;;3.40;1.33;;;;;;;22.44;41.94;101228.25;5072678;28;20098;-73
2022/06/22 01:30:21;;;;;;;3.95;1.70;;;;;;;22.45;41.97;101231.75;5073578;28;20025;-73
2022/06/22 01:32:47;;;;;;;5.63;1.50;;;;;;;22.43;41.92;101218.63;5073770;28;20028;-73
2022/06/22 01:35:23;;;;;;;5.57;1.60;;;;;;;22.45;42.06;101205.19;5072584;28;20543;-73
2022/06/22 01:37:48;;;;;;;3.85;1.50;;;;;;;22.44;41.74;101192.91;5073685;28;20028;-73
2022/06/22 01:40:25;;;;;;;4.15;1.50;;;;;;;22.43;41.88;101191.22;5073529;28;20422;-73
2022/06/22 01:43:15;;;;;;;3.55;1.38;;;;;;;22.43;41.82;101191.22;5071617;28;20089;-73
2022/06/22 01:45:56;;;;;;;3.45;1.55;;;;;;;22.41;41.85;101207.31;5073696;28;20040;-73
2022/06/22 01:48:30;;;;;;;4.18;1.50;;;;;;;22.42;41.91;101208.97;5073632;28;20017;-73
2022/06/22 01:51:10;;;;;;;3.03;1.50;;;;;;;22.41;41.89;101199.34;5072860;28;20024;-73
2022/06/22 01:53:43;;;;;;;4.30;1.60;;;;;;;22.41;42.04;101198.50;5073526;28;20034;-73
2022/06/22 01:56:14;;;;;;;4.20;1.77;;;;;;;22.40;42.11;101202.97;5072687;28;20139;-73
2022/06/22 01:59:02;;;;;;;5.15;1.52;;;;;;;22.40;42.21;101199.50;5073600;28;20028;-74
2022/06/22 02:01:41;;;;;;;3.20;1.50;;;;;;;22.39;41.97;101198.63;5073477;28;20024;-73
2022/06/22 02:04:16;;;;;;;3.47;1.60;;;;;;;22.39;42.15;101193.31;5072474;28;20021;-73
2022/06/22 02:09:52;;;;;;;2.88;1.55;;;;;;;22.37;42.18;101195.28;5073516;28;20043;-73
2022/06/22 02:12:20;;;;;;;4.55;1.70;;;;;;;22.37;42.27;101202.44;5072629;28;20453;-73
2022/06/22 02:14:53;;;;;;;4.50;1.95;;;;;;;22.37;42.31;101197.94;5073309;28;20096;-73
2022/06/22 02:17:23;;;;;;;3.53;1.60;;;;;;;22.36;42.36;101196.25;5072551;28;20027;-73
2022/06/22 02:20:16;;;;;;;4.05;1.80;;;;;;;22.36;42.41;101203.41;5073394;28;20470;-73
2022/06/22 02:22:47;;;;;;;4.25;1.77;;;;;;;22.35;42.15;101204.38;5073463;28;20025;-73
2022/06/22 02:25:18;;;;;;;3.78;1.80;;;;;;;22.36;42.37;101203.41;5076672;28;20407;-73
2022/06/22 02:27:43;;;;;;;4.07;1.85;;;;;;;22.35;42.47;101196.41;5077173;28;20040;-73
2022/06/22 02:30:12;;;;;;;2.92;1.67;;;;;;;22.35;42.34;101193.75;5077246;28;20035;-73
2022/06/22 02:32:44;;;;;;;5.80;1.70;;;;;;;22.34;42.51;101181.47;5076247;28;20098;-73
2022/06/22 02:35:12;;;;;;;3.78;1.60;;;;;;;22.34;42.32;101179.66;5077018;28;20024;-73
2022/06/22 02:37:43;;;;;;;3.53;1.85;;;;;;;22.33;42.61;101177.97;5077033;28;20094;-73
2022/06/22 02:40:14;;;;;;;3.15;1.60;;;;;;;22.34;42.38;101178.81;5076388;28;20024;-73
2022/06/22 02:45:28;;;;;;;3.17;1.50;;;;;;;22.31;42.62;101176.47;5076238;28;20093;-73
2022/06/22 02:47:58;;;;;;;3.95;1.60;;;;;;;22.31;42.59;101174.63;5076568;28;20365;-73
2022/06/22 02:50:29;;;;;;;3.70;1.60;;;;;;;22.31;42.66;101166.66;5076568;28;20024;-73
2022/06/22 02:53:01;;;;;;;3.65;1.70;;;;;;;22.31;42.55;101179.09;5075806;28;20023;-72
2022/06/22 02:55:32;;;;;;;4.07;1.73;;;;;;;22.31;42.31;101179.09;5076446;28;20119;-73
2022/06/22 02:57:59;;;;;;;4.35;1.50;;;;;;;22.29;42.61;101189.84;5076653;28;20028;-73
2022/06/22 03:00:29;;;;;;;4.32;1.70;;;;;;;22.31;42.46;101189.72;5075678;28;20024;-72
2022/06/22 03:03:07;;;;;;;3.42;1.77;;;;;;;22.30;42.73;101196.00;5076616;28;20095;-72
2022/06/22 03:05:34;;;;;;;4.18;1.80;;;;;;;22.28;42.42;101199.59;5076554;28;20028;-73
2022/06/22 03:08:01;;;;;;;4.07;1.90;;;;;;;22.29;42.77;101189.84;5075781;28;20096;-73
2022/06/22 03:10:36;;;;;;;4.35;1.88;;;;;;;22.27;42.76;101192.63;5076414;28;20021;-72
2022/06/22 03:13:02;;;;;;;5.85;2.10;;;;;;;22.28;42.70;101193.47;5076464;28;20126;-73
2022/06/22 03:15:35;;;;;;;6.40;2.00;;;;;;;22.27;42.78;101182.03;5075464;28;20052;-73
2022/06/22 03:18:05;;;;;;;4.53;1.90;;;;;;;22.26;42.62;101185.66;5076299;28;20025;-72
2022/06/22 03:20:44;;;;;;;5.38;2.15;;;;;;;22.27;42.42;101189.13;5075343;28;20020;-72
2022/06/22 03:23:28;;;;;;;4.82;1.70;;;;;;;22.26;42.76;101176.84;5076197;28;20021;-72
2022/06/22 03:26:02;;;;;;;3.95;1.70;;;;;;;22.24;42.27;101176.16;5076263;28;20021;-73
2022/06/22 03:28:33;;;;;;;3.38;1.75;;;;;;;22.25;42.59;101177.81;5074440;28;20079;-73
2022/06/22 03:31:06;;;;;;;4.53;1.70;;;;;;;22.25;42.69;101168.03;5075010;28;20036;-73
2022/06/22 03:33:49;;;;;;;4.37;1.80;;;;;;;22.24;42.83;101165.56;5074420;28;20361;-73
2022/06/22 03:36:20;;;;;;;3.90;1.75;;;;;;;22.22;42.65;101171.00;5073798;28;20028;-72
2022/06/22 03:38:53;;;;;;;3.75;1.70;;;;;;;22.23;42.68;101180.63;5074872;28;20024;-72
2022/06/22 03:41:25;;;;;;;5.05;2.22;;;;;;;22.23;42.73;101177.97;5074533;28;20476;-73
2022/06/22 03:44:04;;;;;;;5.07;1.70;;;;;;;22.23;42.66;101171.81;5074577;28;20048;-73
2022/06/22 03:46:32;;;;;;;4.50;1.73;;;;;;;22.22;42.73;101160.38;5074710;28;20028;-73
2022/06/22 03:49:22;;;;;;;4.78;1.92;;;;;;;22.22;42.98;101151.56;5073684;28;20491;-72
2022/06/22 03:52:11;;;;;;;4.88;1.90;;;;;;;22.21;42.74;101158.69;5074651;28;20119;-73
2022/06/22 03:54:48;;;;;;;3.10;1.67;;;;;;;22.21;42.80;101160.53;5046177;28;20043;-72
2022/06/22 03:57:18;;;;;;;4.43;1.80;;;;;;;22.21;42.78;101169.31;5073838;28;20032;-72
2022/06/22 03:59:45;;;;;;;4.22;1.75;;;;;;;22.20;42.93;101167.63;5074347;28;20020;-72
2022/06/22 04:02:11;;;;;;;3.60;2.00;;;;;;;22.20;42.73;101170.28;5074547;28;20021;-73
2022/06/22 04:04:36;;;;;;;5.15;1.75;;;;;;;22.19;42.87;101163.31;5073730;28;20424;-72
2022/06/22 04:07:05;;;;;;;4.88;2.10;;;;;;;22.19;43.04;101150.06;5074246;28;20033;-72
2022/06/22 04:09:31;;;;;;;3.10;1.63;;;;;;;22.19;43.13;101144.75;5073366;28;20027;-72
2022/06/22 04:12:32;;;;;;;3.03;1.70;;;;;;;22.19;43.13;101155.34;5074303;28;20031;-72
2022/06/22 04:15:32;;;;;;;4.15;2.10;;;;;;;22.18;43.02;101161.63;5074195;28;20384;-72
2022/06/22 04:18:12;;;;;;;2.78;1.67;;;;;;;22.18;43.14;101158.16;5073141;28;20052;-73
2022/06/22 04:20:56;;;;;;;4.20;1.90;;;;;;;22.18;43.30;101163.47;5074181;28;20056;-72
2022/06/22 04:23:50;;;;;;;4.25;1.92;;;;;;;22.17;43.08;101164.44;5074128;28;20025;-72
2022/06/22 04:26:24;;;;;;;4.90;2.00;;;;;;;22.16;43.14;101158.31;5071792;28;20543;-72
2022/06/22 04:28:55;;;;;;;3.45;1.65;;;;;;;22.17;43.14;101167.91;5038497;28;1028943;-72
2022/06/22 04:31:27;;;;;;;3.70;1.90;;;;;;;22.16;43.23;101165.41;5074062;28;20048;-72
2022/06/22 04:33:58;;;;;;;3.72;1.80;;;;;;;22.16;43.23;101176.03;5074847;28;20055;-72
2022/06/22 04:36:29;;;;;;;5.38;2.10;;;;;;;22.16;43.10;101176.88;5074510;28;20036;-72
2022/06/22 04:39:01;;;;;;;5.10;1.80;;;;;;;22.16;43.30;101182.19;5074003;28;20055;-72
2022/06/22 04:41:35;;;;;;;4.47;2.00;;;;;;;22.16;43.16;101189.28;5074792;28;20025;-73
2022/06/22 04:44:10;;;;;;;5.10;1.80;;;;;;;22.15;43.56;101191.13;5074414;28;20024;-73
2022/06/22 04:46:42;;;;;;;7.85;2.25;;;;;;;22.15;43.51;101191.13;5072781;28;20044;-73
2022/06/22 04:49:31;;;;;;;5.65;2.13;;;;;;;22.16;43.44;101191.94;5074236;28;20418;-73
2022/06/22 04:52:06;;;;;;;4.18;2.05;;;;;;;22.14;43.35;101186.78;5061283;28;20127;-73
2022/06/22 04:54:37;;;;;;;5.40;1.80;;;;;;;22.15;43.42;101192.94;5074409;28;20024;-73
2022/06/22 04:57:18;;;;;;;3.97;1.98;;;;;;;22.15;43.58;101187.63;5074223;28;20032;-73
2022/06/22 04:59:44;;;;;;;4.18;1.80;;;;;;;22.15;43.63;101188.47;5073633;28;20051;-73
2022/06/22 05:02:12;;;;;;;4.43;1.90;;;;;;;22.15;43.57;101191.13;5074264;28;20028;-73
2022/06/22 05:05:09;;;;;;;5.05;1.98;;;;;;;22.15;43.73;101196.44;5074230;28;20067;-73
2022/06/22 05:07:40;;;;;;;4.60;1.88;;;;;;;22.14;43.56;101196.56;5071906;28;20070;-73
2022/06/22 05:10:47;;;;;;;4.57;2.08;;;;;;;22.15;43.92;101204.41;5074527;28;20411;-72
2022/06/22 05:13:23;;;;;;;5.75;2.28;;;;;;;22.15;43.60;101192.94;5044089;28;20066;-73
2022/06/22 05:15:51;;;;;;;5.63;1.90;;;;;;;22.15;43.82;101195.59;5073995;28;20128;-72
2022/06/22 05:18:24;;;;;;;4.78;2.38;;;;;;;22.15;43.84;101199.09;5074008;28;20027;-72
2022/06/22 05:21:20;;;;;;;4.20;1.92;;;;;;;22.15;43.95;101193.78;5073154;28;20107;-72
2022/06/22 05:23:52;;;;;;;4.03;1.75;;;;;;;22.16;44.05;101189.28;5074022;28;20031;-72
2022/06/22 05:26:21;;;;;;;3.72;1.55;;;;;;;22.15;43.92;101195.59;5073818;28;20031;-72
2022/06/22 05:29:10;;;;;;;4.18;1.85;;;;;;;22.15;43.88;101204.41;5072762;28;20040;-72
2022/06/22 05:31:44;;;;;;;3.63;1.95;;;;;;;22.16;44.07;101210.53;5073837;28;20433;-72
2022/06/22 05:34:18;;;;;;;5.90;2.03;;;;;;;22.15;44.04;101207.03;5073031;28;20568;-72
2022/06/22 05:36:49;;;;;;;6.63;2.13;;;;;;;22.15;43.96;101201.75;5073662;28;20476;-72
2022/06/22 05:39:15;;;;;;;5.90;2.00;;;;;;;22.16;43.94;101208.72;5073601;28;20028;-72
2022/06/22 05:41:44;;;;;;;4.10;1.90;;;;;;;22.16;44.27;101218.50;5072837;28;20510;-73
2022/06/22 05:44:12;;;;;;;10.23;2.20;;;;;;;22.16;44.19;101224.66;5073677;28;20048;-75
2022/06/22 05:46:41;;;;;;;4.68;1.90;;;;;;;22.17;44.29;101222.84;5073580;28;20494;-72
2022/06/22 05:49:14;;;;;;;7.00;2.05;;;;;;;22.17;44.12;101233.44;5072665;28;20070;-70
2022/06/22 05:52:02;;;;;;;6.03;1.90;;;;;;;22.16;44.41;101234.41;5073707;28;20075;-69
2022/06/22 05:54:38;;;;;;;6.43;2.15;;;;;;;22.16;44.48;101239.72;5073311;28;20031;-69
2022/06/22 05:57:20;;;;;;;4.60;1.92;;;;;;;22.16;44.36;101247.69;5072499;28;20494;-69
2022/06/22 05:59:54;;;;;;;4.25;2.03;;;;;;;22.16;44.44;101248.56;5073353;28;20028;-69
2022/06/22 06:02:28;;;;;;;5.40;1.90;;;;;;;22.16;44.56;101245.03;5072462;28;20434;-69
2022/06/22 06:05:20;;;;;;;7.55;2.25;;;;;;;22.15;44.33;101238.91;5073278;28;20028;-69
2022/06/22 06:07:54;;;;;;;4.57;2.10;;;;;;;22.15;44.52;101246.88;5061795;28;20033;-69
2022/06/22 06:10:27;;;;;;;5.60;2.17;;;;;;;22.14;44.73;101234.56;5072611;28;20029;-69
2022/06/22 06:13:12;;;;;;;4.03;2.25;;;;;;;22.15;44.58;101238.06;5072994;28;20463;-69
2022/06/22 06:15:39;;;;;;;4.50;2.05;;;;;;;22.15;44.56;101235.41;5073072;28;20104;-69
2022/06/22 06:18:07;;;;;;;7.75;2.70;;;;;;;22.15;44.65;101240.72;5072154;28;20021;-69
2022/06/22 06:20:38;;;;;;;5.90;2.22;;;;;;;22.15;44.61;101244.22;5073144;28;20020;-69
2022/06/22 06:23:11;;;;;;;6.57;2.50;;;;;;;22.14;44.68;101242.53;5073142;28;20020;-69
2022/06/22 06:28:44;;;;;;;5.60;2.38;;;;;;;22.15;44.93;101241.56;5072791;28;20122;-70
2022/06/22 06:31:17;;;;;;;8.50;2.45;;;;;;;22.15;44.83;101249.53;5072295;28;20028;-68
2022/06/22 06:33:43;;;;;;;6.75;2.60;;;;;;;22.15;44.69;101238.91;5073332;28;20028;-68
2022/06/22 06:36:40;;;;;;;7.78;2.50;;;;;;;22.15;44.87;101254.00;5072986;28;20090;-68
2022/06/22 06:39:21;;;;;;;6.50;2.50;;;;;;;22.16;45.02;101247.69;5043984;28;20036;-68
2022/06/22 06:42:03;;;;;;;5.65;2.47;;;;;;;22.16;44.99;101237.06;5073402;28;20016;-68
2022/06/22 06:44:34;;;;;;;5.18;2.35;;;;;;;22.15;44.83;101233.59;5072215;28;20082;-68
2022/06/22 06:47:05;;;;;;;5.95;2.40;;;;;;;22.15;44.74;101230.13;5073095;28;20063;-68
2022/06/22 06:49:38;;;;;;;7.32;2.35;;;;;;;22.16;45.04;101224.66;5072672;28;20088;-68
2022/06/22 06:52:21;;;;;;;6.03;2.00;;;;;;;22.17;45.04;101228.16;5072178;28;20021;-68
2022/06/22 06:55:02;;;;;;;4.93;2.40;;;;;;;22.17;45.10;101225.50;5072945;28;20047;-68
2022/06/22 06:57:29;;;;;;;5.60;2.50;;;;;;;22.17;45.04;101222.84;5072690;28;20032;-68
2022/06/22 06:59:58;;;;;;;4.38;2.30;;;;;;;22.16;45.17;101224.66;5071849;28;20070;-68
2022/06/22 07:02:38;;;;;;;4.25;2.40;;;;;;;22.15;45.07;101220.31;5072769;28;20017;-69
2022/06/22 07:05:07;;;;;;;4.88;2.10;;;;;;;22.15;44.99;101212.34;5072636;28;20463;-68
2022/06/22 07:07:39;;;;;;;5.38;2.25;;;;;;;22.17;45.19;101212.22;5072240;28;20028;-69
2022/06/22 07:10:27;;;;;;;6.43;2.30;;;;;;;22.17;44.96;101212.22;5075062;28;20024;-69
2022/06/22 07:13:02;;;;;;;6.68;2.22;;;;;;;22.18;45.13;101213.91;5064726;28;20033;-69
2022/06/22 07:15:36;;;;;;;6.55;2.55;;;;;;;22.18;45.71;101214.72;5076459;28;20029;-69
2022/06/22 07:18:17;;;;;;;6.85;3.28;;;;;;;22.20;46.18;101215.41;5076194;28;20117;-70
2022/06/22 07:20:47;;;;;;;8.02;2.58;;;;;;;22.20;46.37;101206.63;5075413;28;20027;-68
2022/06/22 07:23:20;;;;;;;8.50;2.88;;;;;;;22.20;46.40;101210.09;5076078;28;20055;-69
2022/06/22 07:25:51;;;;;;;5.47;2.88;;;;;;;22.21;46.53;101208.31;5076087;28;20507;-69
2022/06/22 07:28:24;;;;;;;5.50;2.60;;;;;;;22.21;46.56;101200.34;5075196;28;20045;-69
2022/06/22 07:30:54;;;;;;;9.35;2.70;;;;;;;22.21;46.26;101190.56;5076152;28;20028;-68
2022/06/22 07:33:30;;;;;;;6.50;2.92;;;;;;;22.22;46.35;101183.41;5076191;28;20070;-69
2022/06/22 07:36:01;;;;;;;6.97;2.60;;;;;;;22.22;46.24;101188.72;5076002;28;20037;-69
2022/06/22 07:38:39;;;;;;;5.68;2.50;;;;;;;22.22;46.01;101186.06;5075756;28;20024;-68
2022/06/22 07:41:19;;;;;;;6.18;2.45;;;;;;;22.22;45.95;101196.69;5075166;28;20024;-68
2022/06/22 07:44:19;;;;;;;5.82;2.08;;;;;;;22.22;45.95;101202.00;5076526;28;20025;-69
2022/06/22 07:47:17;;;;;;;5.63;2.35;;;;;;;22.22;46.06;101204.66;5050687;28;20068;-69
2022/06/22 07:49:59;;;;;;;6.50;2.20;;;;;;;22.22;45.84;101204.66;5066810;28;20115;-69
2022/06/22 07:52:42;;;;;;;5.65;2.25;;;;;;;22.21;45.85;101187.91;5075780;28;20024;-69
2022/06/22 07:55:31;;;;;;;5.63;2.30;;;;;;;22.22;45.90;101194.91;5074863;28;20028;-68
2022/06/22 07:58:05;;;;;;;4.78;2.30;;;;;;;22.23;45.88;101201.03;5075885;28;20288;-69
2022/06/22 08:00:33;;;;;;;3.95;2.08;;;;;;;22.22;45.87;101200.19;5075578;28;20037;-68
2022/06/22 08:03:43;;;;;;;6.20;2.80;;;;;;;22.23;45.63;101191.25;5074664;28;20460;-69
2022/06/22 08:06:14;;;;;;;5.32;2.13;;;;;;;22.23;45.69;101193.06;5041653;28;20051;-68
2022/06/22 08:08:45;;;;;;;6.65;2.28;;;;;;;22.24;45.78;101202.72;5074819;28;20112;-69
2022/06/22 08:11:21;;;;;;;5.75;2.20;;;;;;;22.22;45.67;101202.84;5075558;28;20016;-69
2022/06/22 08:14:00;;;;;;;4.20;2.13;;;;;;;22.22;45.55;101205.50;5075393;28;20029;-69
2022/06/22 08:16:33;;;;;;;4.63;2.10;;;;;;;22.24;45.46;101206.19;5074430;28;20052;-69
2022/06/22 08:19:01;;;;;;;5.18;2.20;;;;;;;22.25;45.88;101205.19;5075291;28;20115;-69
2022/06/22 08:21:27;;;;;;;3.95;2.17;;;;;;;22.25;45.54;101215.81;5073759;28;20029;-69
2022/06/22 08:23:54;;;;;;;4.13;2.08;;;;;;;22.25;45.76;101207.03;5074519;28;20032;-69
2022/06/22 08:26:26;;;;;;;4.68;2.08;;;;;;;22.26;45.49;101214.03;5075045;28;20103;-69
2022/06/22 08:28:53;;;;;;;6.43;2.17;;;;;;;22.24;45.41;101216.00;5075004;28;20087;-69
2022/06/22 08:31:18;;;;;;;3.92;2.00;;;;;;;22.26;45.64;101219.34;5074038;28;20495;-69
2022/06/22 08:33:50;;;;;;;4.22;2.05;;;;;;;22.26;45.68;101219.34;5074663;28;20024;-69
2022/06/22 08:36:34;;;;;;;5.60;2.00;;;;;;;22.26;45.46;101208.72;5074946;28;20075;-69
2022/06/22 08:39:10;;;;;;;4.00;1.98;;;;;;;22.28;45.74;101218.19;5074226;28;20025;-69
2022/06/22 08:41:59;;;;;;;4.88;2.08;;;;;;;22.28;45.41;101220.00;5074749;28;20063;-69
2022/06/22 08:44:42;;;;;;;6.35;2.20;;;;;;;22.27;45.19;101213.88;5074178;28;20357;-69
2022/06/22 08:47:07;;;;;;;6.30;2.20;;;;;;;22.28;45.38;101217.38;5074862;28;20111;-69
2022/06/22 08:49:59;;;;;;;3.90;2.10;;;;;;;22.27;45.58;101221.84;5074580;28;20052;-68
2022/06/22 08:52:50;;;;;;;3.58;1.95;;;;;;;22.30;45.62;101222.56;5073633;28;20043;-70
2022/06/22 08:55:41;;;;;;;4.75;2.30;;;;;;;22.31;45.57;101213.63;5074438;28;20031;-70
2022/06/22 08:58:21;;;;;;;5.00;2.10;;;;;;;22.30;45.38;101207.47;5073768;28;20048;-70
2022/06/22 09:01:00;;;;;;;5.32;1.80;;;;;;;22.32;45.28;101210.84;5074409;28;20388;-71
2022/06/22 09:04:00;;;;;;;6.40;2.28;;;;;;;22.32;45.32;101200.22;5074617;28;20036;-70
2022/06/22 09:06:37;;;;;;;5.57;1.88;;;;;;;22.32;45.38;101200.22;5073425;28;20028;-70
2022/06/22 09:09:23;;;;;;;5.68;2.10;;;;;;;22.33;45.23;101201.03;5074235;28;20036;-70
2022/06/22 09:12:05;;;;;;;6.20;1.98;;;;;;;22.33;45.30;101212.47;5074086;28;20029;-70
2022/06/22 09:14:45;;;;;;;6.72;1.90;;;;;;;22.33;45.32;101217.78;5074446;28;20025;-70
2022/06/22 09:17:45;;;;;;;5.00;2.10;;;;;;;22.34;45.09;101218.66;5074274;28;20036;-70
2022/06/22 09:20:55;;;;;;;4.32;2.00;;;;;;;22.34;45.04;101222.13;5073450;28;20078;-70
2022/06/22 09:23:40;;;;;;;4.70;1.80;;;;;;;22.35;45.00;101225.63;5040140;28;20037;-69
2022/06/22 09:26:33;;;;;;;3.65;1.83;;;;;;;22.35;45.00;101215.84;5072491;28;20128;-69
2022/06/22 09:29:04;;;;;;;4.05;2.00;;;;;;;22.36;44.93;101225.47;5073655;28;20140;-69
2022/06/22 09:31:48;;;;;;;3.17;1.60;;;;;;;22.38;44.88;101226.19;5073734;28;20016;-69
2022/06/22 09:34:28;;;;;;;4.03;1.80;;;;;;;22.38;44.87;101231.50;5073091;28;20115;-69
2022/06/22 09:37:34;;;;;;;4.13;1.88;;;;;;;22.39;44.66;101227.00;5073782;28;20112;-69
2022/06/22 09:40:21;;;;;;;3.63;1.50;;;;;;;22.40;44.68;101231.34;5073813;28;20029;-69
2022/06/22 09:43:00;;;;;;;3.65;1.58;;;;;;;22.40;44.46;101223.38;5073771;28;20050;-69
2022/06/22 09:45:54;;;;;;;4.32;1.52;;;;;;;22.40;44.22;101224.22;5072467;28;20036;-70
2022/06/22 09:48:40;;;;;;;4.22;1.70;;;;;;;22.41;44.18;101236.53;5072819;28;20050;-70
2022/06/22 09:51:17;;;;;;;4.55;2.00;;;;;;;22.41;44.13;101228.56;5073693;28;20044;-70
2022/06/22 09:56:19;;;;;;;3.63;1.70;;;;;;;22.42;44.17;101226.72;5073510;28;20024;-70
2022/06/22 09:57:22;;;;;;;5.43;1.80;;;;;;;22.42;44.28;101219.59;5073168;28;20047;-70
2022/06/22 10:00:14;;;;;;;4.20;1.65;;;;;;;22.42;44.23;101219.59;5073525;28;20050;-70
2022/06/22 10:03:09;;;;;;;3.45;1.50;;;;;;;22.43;44.23;101208.00;5069340;28;20051;-69
2022/06/22 10:05:48;;;;;;;4.38;1.55;;;;;;;22.43;44.19;101205.34;5073214;28;20372;-70
2022/06/22 10:08:29;;;;;;;2.53;1.35;;;;;;;22.44;43.73;101206.16;5071378;28;20400;-69
2022/06/22 10:11:13;;;;;;;3.78;1.60;;;;;;;22.44;43.67;101207.00;5073248;28;20032;-69
2022/06/22 10:14:15;;;;;;;3.63;1.30;;;;;;;22.44;43.87;101209.66;5073363;28;20032;-70
2022/06/22 10:17:10;;;;;;;2.72;1.42;;;;;;;22.45;43.91;101203.38;5072459;28;20105;-69
2022/06/22 10:19:59;;;;;;;4.47;1.50;;;;;;;22.45;43.89;101194.56;5043792;28;20086;-70
2022/06/22 10:22:40;;;;;;;3.58;1.60;;;;;;;22.46;43.95;101183.81;5072527;28;20035;-70
2022/06/22 10:25:08;;;;;;;3.90;1.50;;;;;;;22.48;43.68;101185.47;5073546;28;20056;-69
2022/06/22 10:28:11;;;;;;;2.83;1.30;;;;;;;22.47;43.45;101184.63;5073023;28;20048;-69
2022/06/22 10:30:52;;;;;;;3.13;1.50;;;;;;;22.48;43.65;101196.94;5072471;28;20028;-69
2022/06/22 10:33:35;;;;;;;3.53;1.38;;;;;;;22.49;43.33;101187.16;5073243;28;20024;-69
2022/06/22 10:36:03;;;;;;;3.05;1.30;;;;;;;22.50;43.79;101194.97;5073123;28;20159;-69
2022/06/22 10:38:38;;;;;;;2.72;1.30;;;;;;;22.50;43.58;101180.88;5072099;28;20104;-70
2022/06/22 10:47:21;;;;;;;4.40;1.45;;;;;;;22.52;43.60;101181.56;5076816;28;20047;-69
2022/06/22 10:50:10;;;;;;;3.30;1.40;;;;;;;22.52;43.65;101185.03;5077040;28;20390;-70
2022/06/22 10:53:27;;;;;;;6.88;1.40;;;;;;;22.53;43.50;101188.53;5076230;28;20468;-70
2022/06/22 10:56:31;;;;;;;2.95;1.40;;;;;;;22.54;43.52;101192.84;5014893;28;20057;-71
2022/06/22 10:59:15;;;;;;;5.40;1.50;;;;;;;22.53;43.43;101184.06;5014064;28;20041;-71
2022/06/22 11:01:46;;;;;;;3.78;1.40;;;;;;;22.53;43.33;101181.41;5067081;28;20041;-71
2022/06/22 11:04:40;;;;;;;4.22;1.52;;;;;;;22.54;43.35;101177.78;5076683;28;20031;-71
2022/06/22 11:07:30;;;;;;;3.30;1.50;;;;;;;22.54;43.09;101175.13;5056530;28;20048;-70
2022/06/22 11:10:32;;;;;;;3.75;1.40;;;;;;;22.55;43.05;101183.91;5076730;28;20032;-71
2022/06/22 11:13:03;;;;;;;4.35;1.60;;;;;;;22.54;42.97;101180.44;5075740;28;20033;-70
2022/06/22 11:15:55;;;;;;;4.03;1.52;;;;;;;22.54;43.08;101183.09;5076422;28;20111;-70
2022/06/22 11:18:34;;;;;;;3.83;1.63;;;;;;;22.55;42.99;101181.25;5076316;28;20028;-69
2022/06/22 11:21:32;;;;;;;3.85;1.30;;;;;;;22.55;43.13;101173.28;5076256;28;20032;-69
2022/06/22 11:24:34;;;;;;;4.50;1.63;;;;;;;22.55;42.76;101182.09;5076278;28;20100;-70
2022/06/22 11:30:48;;;;;;;4.97;1.70;;;;;;;22.57;42.91;101173.97;5076171;28;20043;-69
2022/06/22 11:33:25;;;;;;;;;;;;;;;22.56;42.85;101181.13;5075884;28;20094;-69
2022/06/22 11:36:07;;;;;;;4.00;1.52;;;;;;;22.57;42.74;101184.59;5076000;28;19920;-70
2022/06/22 11:39:38;;;;;;;4.35;1.50;;;;;;;22.56;42.88;101186.44;5076090;28;20033;-71
2022/06/22 11:42:22;;;;;;;3.97;1.20;;;;;;;22.57;43.02;101184.59;4994485;28;20422;-71
2022/06/22 11:48:02;;;;;;;2.58;1.30;;;;;;;22.58;42.84;101183.63;5074880;28;20119;-71
2022/06/22 11:51:12;;;;;;;4.43;1.40;;;;;;;22.58;43.03;101184.44;5075841;28;20027;-70
2022/06/22 11:53:50;;;;;;;3.58;1.40;;;;;;;22.58;42.98;101179.16;5075643;28;20032;-71
2022/06/22 11:56:30;;;;;;;4.28;1.60;;;;;;;22.59;42.87;101180.00;5075140;28;20035;-71
2022/06/22 11:59:10;;;;;;;3.08;1.45;;;;;;;22.60;42.85;101187.78;5075611;28;20036;-71
2022/06/22 12:02:00;;;;;;;3.08;1.38;;;;;;;22.60;43.00;101190.44;5074701;28;20115;-71
2022/06/22 12:04:38;;;;;;;4.55;1.40;;;;;;;22.61;42.83;101184.16;5075666;28;20028;-71
2022/06/22 12:07:37;;;;;;;2.88;1.33;;;;;;;22.62;42.58;101188.50;5075288;28;20036;-71
2022/06/22 12:10:42;;;;;;;3.10;1.23;;;;;;;22.62;42.51;101179.69;5074835;28;20036;-70
2022/06/22 12:13:25;;;;;;;3.13;1.30;;;;;;;22.63;42.64;101182.19;5075184;28;20346;-70
2022/06/22 12:16:12;;;;;;;3.25;1.48;;;;;;;22.64;42.42;101175.91;5074362;28;20121;-71
2022/06/22 12:18:52;;;;;;;2.85;1.20;;;;;;;22.65;42.48;101166.09;5075353;28;20056;-71
2022/06/22 12:21:36;;;;;;;4.55;1.50;;;;;;;22.65;42.44;101158.13;5075204;28;20032;-70
2022/06/22 12:24:28;;;;;;;2.88;1.30;;;;;;;22.66;42.29;101151.84;5074426;28;20032;-71
2022/06/22 12:27:18;;;;;;;3.95;1.38;;;;;;;22.67;42.35;101155.34;5063850;28;20102;-73
2022/06/22 12:30:00;;;;;;;4.68;1.40;;;;;;;22.66;42.06;101146.53;5074166;28;20496;-71
2022/06/22 12:32:34;;;;;;;2.58;1.30;;;;;;;22.68;42.14;101155.19;5074880;28;20020;-70
2022/06/22 12:35:32;;;;;;;3.92;1.52;;;;;;;22.69;42.26;101142.75;5074877;28;20025;-71
2022/06/22 12:38:14;;;;;;;3.15;1.30;;;;;;;22.69;42.20;101143.59;5074087;28;20025;-71
2022/06/22 12:40:50;;;;;;;1.73;1.10;;;;;;;22.72;42.14;101131.84;5074773;28;20413;-71
2022/06/22 12:43:50;;;;;;;3.95;1.30;;;;;;;22.72;42.53;101139.81;5074118;28;20035;-71